Time;durP1;ratioP1;P1;durP2;ratioP2;P2;SDS_P1;SDS_P2;PMS_P1;PMS_P2;Temp;Humidity;BMP_temperature;BMP_pressure;BME280_temperature;BME280_humidity;BME280_pressure;Samples;Min_cycle;Max_cycle;Signal;HPM_P1;HPM_P2
2023/11/22 00:00:28;;;;;;;9.07;5.63;;;4.70;99.90;;;;;;5065289;28;20040;-66
2023/11/22 00:02:53;;;;;;;6.95;6.20;;;4.60;99.90;;;;;;5067767;28;20041;-66
2023/11/22 00:05:19;;;;;;;7.80;7.00;;;4.60;99.90;;;;;;5063952;28;20109;-66
2023/11/22 00:07:45;;;;;;;8.77;7.47;;;4.60;99.90;;;;;;5068486;28;20037;-66
2023/11/22 00:10:10;;;;;;;8.45;6.88;;;4.60;99.90;;;;;;5066001;28;20115;-66
2023/11/22 00:12:38;;;;;;;9.95;7.20;;;4.60;99.90;;;;;;5064742;28;20373;-66
2023/11/22 00:15:05;;;;;;;7.95;7.15;;;4.60;99.90;;;;;;5067619;28;20041;-66
2023/11/22 00:17:32;;;;;;;8.10;6.75;;;4.70;99.90;;;;;;5066734;28;20036;-66
2023/11/22 00:20:00;;;;;;;20.27;7.80;;;4.60;99.90;;;;;;5063161;28;20059;-66
2023/11/22 00:22:27;;;;;;;7.68;6.88;;;4.70;99.90;;;;;;5062983;28;20048;-66
2023/11/22 00:24:53;;;;;;;10.18;6.65;;;4.70;99.90;;;;;;5062199;28;20040;-66
2023/11/22 00:27:19;;;;;;;9.30;7.60;;;4.70;99.90;;;;;;5066815;28;20426;-66
2023/11/22 00:29:45;;;;;;;9.88;7.57;;;4.70;99.90;;;;;;5095498;28;20052;-66
2023/11/22 00:32:11;;;;;;;9.95;8.15;;;4.70;99.90;;;;;;5066836;28;20076;-66
2023/11/22 00:34:37;;;;;;;9.80;8.27;;;4.70;99.90;;;;;;5067097;28;20063;-66
2023/11/22 00:37:03;;;;;;;9.60;7.88;;;4.60;99.90;;;;;;5064219;28;20047;-66
2023/11/22 00:39:28;;;;;;;11.40;8.52;;;4.70;99.90;;;;;;5046897;28;20052;-66
2023/11/22 00:41:55;;;;;;;10.98;8.05;;;4.60;99.90;;;;;;5065988;28;20096;-66
2023/11/22 00:44:21;;;;;;;11.90;7.80;;;4.60;99.90;;;;;;5065720;28;20079;-66
2023/11/22 00:46:46;;;;;;;11.40;7.40;;;4.60;99.90;;;;;;5080816;28;20075;-66
2023/11/22 00:49:12;;;;;;;7.82;6.85;;;4.50;99.90;;;;;;5066683;28;20444;-66
2023/11/22 00:51:38;;;;;;;11.60;8.00;;;4.40;99.90;;;;;;5097335;28;20041;-66
2023/11/22 00:54:04;;;;;;;9.15;6.40;;;4.40;99.90;;;;;;5064583;28;20086;-66
2023/11/22 00:56:30;;;;;;;7.93;7.10;;;4.30;99.90;;;;;;5064884;28;20059;-66
2023/11/22 00:58:59;;;;;;;9.35;7.13;;;4.30;99.90;;;;;;5065679;28;20044;-66
2023/11/22 01:01:25;;;;;;;8.90;7.20;;;4.20;99.90;;;;;;5064805;28;20045;-66
2023/11/22 01:03:51;;;;;;;9.20;7.53;;;4.10;99.90;;;;;;5065370;28;20498;-66
2023/11/22 01:06:18;;;;;;;10.82;8.68;;;4.00;99.90;;;;;;5065552;28;20041;-66
2023/11/22 01:08:43;;;;;;;9.00;8.10;;;4.00;99.90;;;;;;5096116;27;21440;-65
2023/11/22 01:11:09;;;;;;;11.35;7.40;;;4.00;99.90;;;;;;5064446;28;20040;-66
2023/11/22 01:13:40;;;;;;;10.02;6.78;;;3.90;99.90;;;;;;5065309;28;20036;-66
2023/11/22 01:16:10;;;;;;;9.23;7.55;;;3.90;99.90;;;;;;5064945;28;20085;-66
2023/11/22 01:18:36;;;;;;;10.88;8.70;;;3.90;99.90;;;;;;5065218;28;20048;-66
2023/11/22 01:21:01;;;;;;;12.80;8.13;;;3.80;99.90;;;;;;5064907;28;20044;-66
2023/11/22 01:23:30;;;;;;;10.65;9.00;;;3.80;99.90;;;;;;5063144;28;20072;-66
2023/11/22 01:25:55;;;;;;;11.18;8.18;;;3.90;99.90;;;;;;5063172;28;20045;-66
2023/11/22 01:28:21;;;;;;;9.85;8.68;;;3.80;99.90;;;;;;5064349;28;20112;-66
2023/11/22 01:30:48;;;;;;;10.35;9.02;;;3.80;99.90;;;;;;5061257;28;20037;-66
2023/11/22 01:33:14;;;;;;;12.65;9.13;;;3.80;99.90;;;;;;5067664;28;20578;-66
2023/11/22 01:35:40;;;;;;;13.65;9.05;;;3.80;99.90;;;;;;5062045;28;20128;-66
2023/11/22 01:38:06;;;;;;;12.05;7.75;;;3.70;99.90;;;;;;5064492;28;20115;-66
2023/11/22 01:40:32;;;;;;;8.02;7.22;;;3.70;99.90;;;;;;5061816;28;20041;-66
2023/11/22 01:43:02;;;;;;;13.55;8.60;;;3.70;99.90;;;;;;5096893;28;20487;-66
2023/11/22 01:45:28;;;;;;;11.10;8.13;;;3.60;99.90;;;;;;5064127;28;20586;-66
2023/11/22 01:47:55;;;;;;;10.07;8.13;;;3.60;99.90;;;;;;5062504;28;20140;-66
2023/11/22 01:50:20;;;;;;;10.82;8.60;;;3.50;99.90;;;;;;5061843;28;20040;-66
2023/11/22 01:52:47;;;;;;;11.68;8.02;;;3.50;99.90;;;;;;5064871;28;20094;-66
2023/11/22 01:55:13;;;;;;;10.50;8.70;;;3.50;99.90;;;;;;5064269;28;20142;-66
2023/11/22 01:57:39;;;;;;;10.82;7.88;;;3.40;99.90;;;;;;5063976;28;20491;-66
2023/11/22 02:00:14;;;;;;;11.23;8.68;;;3.40;99.90;;;;;;5067496;28;20063;-66
2023/11/22 02:02:39;;;;;;;11.57;8.02;;;3.40;99.90;;;;;;5050130;28;20048;-66
2023/11/22 02:05:05;;;;;;;10.18;8.15;;;3.30;99.90;;;;;;5070897;28;20074;-66
2023/11/22 02:07:31;;;;;;;10.45;8.63;;;3.40;99.90;;;;;;5068408;28;20090;-66
2023/11/22 02:10:05;;;;;;;11.27;8.50;;;3.30;99.90;;;;;;5066776;28;20045;-66
2023/11/22 02:12:31;;;;;;;11.68;8.65;;;3.30;99.90;;;;;;5067736;28;20045;-66
2023/11/22 02:14:57;;;;;;;10.90;8.20;;;3.30;99.90;;;;;;5069486;28;20039;-66
2023/11/22 02:17:23;;;;;;;13.07;9.98;;;3.30;99.90;;;;;;5068542;28;20043;-66
2023/11/22 02:19:48;;;;;;;9.90;8.57;;;3.30;99.90;;;;;;5099086;27;20049;-66
2023/11/22 02:22:14;;;;;;;12.95;9.52;;;3.30;99.90;;;;;;5069206;28;20036;-66
2023/11/22 02:24:40;;;;;;;12.05;9.73;;;3.20;99.90;;;;;;5067336;28;20483;-66
2023/11/22 02:27:06;;;;;;;10.73;8.70;;;3.20;99.90;;;;;;5067919;28;20079;-66
2023/11/22 02:29:32;;;;;;;13.80;8.60;;;3.00;99.90;;;;;;5066925;28;20127;-66
2023/11/22 02:31:57;;;;;;;12.02;8.52;;;3.10;99.90;;;;;;5070222;28;20033;-66
2023/11/22 02:34:23;;;;;;;13.55;8.60;;;2.90;99.90;;;;;;5066186;28;20044;-66
2023/11/22 02:36:49;;;;;;;12.02;8.50;;;2.90;99.90;;;;;;5069406;28;20431;-66
2023/11/22 02:39:16;;;;;;;10.07;8.68;;;2.90;99.90;;;;;;5067689;28;20071;-66
2023/11/22 02:41:42;;;;;;;9.63;7.38;;;2.90;99.90;;;;;;5068200;28;20052;-66
2023/11/22 02:44:07;;;;;;;10.73;8.25;;;2.90;99.90;;;;;;5067146;28;20063;-66
2023/11/22 02:46:33;;;;;;;11.90;8.70;;;2.80;99.90;;;;;;5066460;28;20380;-66
2023/11/22 02:48:59;;;;;;;10.05;7.28;;;2.80;99.90;;;;;;5082209;28;20037;-66
2023/11/22 02:51:25;;;;;;;11.05;8.40;;;2.80;99.90;;;;;;5067420;28;20033;-65
2023/11/22 02:53:53;;;;;;;8.27;7.22;;;2.70;99.90;;;;;;5068143;28;20041;-66
2023/11/22 02:56:19;;;;;;;9.20;7.05;;;2.70;99.90;;;;;;5081249;28;20044;-66
2023/11/22 02:58:45;;;;;;;9.55;7.97;;;2.70;99.90;;;;;;5065552;28;20044;-66
2023/11/22 03:01:11;;;;;;;10.77;8.15;;;2.70;99.90;;;;;;5064010;28;20490;-66
2023/11/22 03:03:37;;;;;;;13.68;9.68;;;2.60;99.90;;;;;;5069434;28;20079;-65
2023/11/22 03:06:03;;;;;;;10.20;8.18;;;2.60;99.90;;;;;;5065139;28;20044;-65
2023/11/22 03:08:28;;;;;;;11.00;8.32;;;2.60;99.90;;;;;;5065383;28;20033;-66
2023/11/22 03:10:54;;;;;;;10.40;8.10;;;2.70;99.90;;;;;;5064569;28;20036;-66
2023/11/22 03:13:19;;;;;;;12.15;8.18;;;3.40;99.90;;;;;;5079937;28;20045;-66
2023/11/22 03:15:45;;;;;;;8.48;7.25;;;2.60;99.90;;;;;;5066579;28;20040;-66
2023/11/22 03:18:11;;;;;;;8.32;6.65;;;2.50;99.90;;;;;;5068068;28;20048;-66
2023/11/22 03:20:37;;;;;;;8.25;6.82;;;2.40;99.90;;;;;;5066221;28;20036;-66
2023/11/22 03:23:04;;;;;;;8.88;6.93;;;2.30;99.90;;;;;;5097451;28;20407;-66
2023/11/22 03:25:30;;;;;;;16.13;7.35;;;2.20;99.90;;;;;;5061801;28;20491;-65
2023/11/22 03:27:56;;;;;;;10.68;7.57;;;2.10;99.90;;;;;;5065531;28;20037;-65
2023/11/22 03:30:21;;;;;;;8.75;7.30;;;2.10;99.90;;;;;;5068058;28;20520;-65
2023/11/22 03:32:47;;;;;;;8.60;7.40;;;2.10;99.90;;;;;;5068808;28;20051;-65
2023/11/22 03:35:13;;;;;;;10.55;7.03;;;2.20;99.90;;;;;;5065895;28;20909;-65
2023/11/22 03:37:38;;;;;;;9.57;7.60;;;2.20;99.90;;;;;;5064239;28;20046;-65
2023/11/22 03:40:04;;;;;;;10.73;8.65;;;2.10;99.90;;;;;;5064624;28;20040;-65
2023/11/22 03:42:30;;;;;;;11.05;9.15;;;2.20;99.90;;;;;;5064602;28;20495;-65
2023/11/22 03:44:56;;;;;;;12.63;8.85;;;2.20;99.90;;;;;;5067283;28;20071;-65
2023/11/22 03:47:22;;;;;;;13.30;9.35;;;2.20;99.90;;;;;;5065475;28;20072;-65
2023/11/22 03:49:47;;;;;;;9.65;8.65;;;2.10;99.90;;;;;;5064472;28;20064;-65
2023/11/22 03:52:14;;;;;;;12.38;8.38;;;2.20;99.90;;;;;;5068150;28;20491;-65
2023/11/22 03:54:39;;;;;;;11.13;8.07;;;2.10;99.90;;;;;;5095336;28;20045;-65
2023/11/22 03:57:05;;;;;;;10.73;8.35;;;2.10;99.90;;;;;;5067267;28;20432;-65
2023/11/22 03:59:31;;;;;;;11.73;8.88;;;2.10;99.90;;;;;;5064341;28;20036;-66
2023/11/22 04:01:57;;;;;;;11.80;8.50;;;2.10;99.90;;;;;;5068635;28;20045;-66
2023/11/22 04:04:23;;;;;;;10.32;8.93;;;2.10;99.90;;;;;;5068724;28;20470;-66
2023/11/22 04:06:48;;;;;;;11.00;7.95;;;2.10;99.90;;;;;;5061811;28;20059;-66
2023/11/22 04:09:16;;;;;;;14.35;8.50;;;2.10;99.90;;;;;;5063464;28;20908;-66
2023/11/22 04:11:42;;;;;;;11.90;8.18;;;2.00;99.90;;;;;;5064596;28;20136;-65
2023/11/22 04:14:08;;;;;;;12.45;8.73;;;2.00;99.90;;;;;;5065183;28;20124;-65
2023/11/22 04:16:34;;;;;;;11.18;8.27;;;2.00;99.90;;;;;;5082200;28;20094;-65
2023/11/22 04:18:59;;;;;;;9.65;7.38;;;2.00;99.90;;;;;;5063818;28;20394;-66
2023/11/22 04:21:25;;;;;;;7.97;7.18;;;2.00;99.90;;;;;;5064689;28;20045;-65
2023/11/22 04:23:51;;;;;;;14.10;6.70;;;1.90;99.90;;;;;;5066634;28;20028;-66
2023/11/22 04:26:16;;;;;;;11.80;5.88;;;1.90;99.90;;;;;;5062707;28;20040;-66
2023/11/22 04:28:42;;;;;;;16.10;6.95;;;1.90;99.90;;;;;;5095702;28;20041;-66
2023/11/22 04:31:10;;;;;;;8.48;6.32;;;1.90;99.90;;;;;;5065486;28;20047;-66
2023/11/22 04:33:37;;;;;;;9.75;7.38;;;1.80;99.90;;;;;;5066922;28;20479;-66
2023/11/22 04:36:04;;;;;;;9.48;7.40;;;1.80;99.90;;;;;;5064962;28;21382;-66
2023/11/22 04:38:30;;;;;;;9.50;7.45;;;1.80;99.90;;;;;;5067317;28;20075;-66
2023/11/22 04:40:56;;;;;;;8.82;7.35;;;1.80;99.90;;;;;;5064460;28;20045;-65
2023/11/22 04:43:21;;;;;;;9.32;8.18;;;1.80;99.90;;;;;;5064759;28;20555;-65
2023/11/22 04:45:47;;;;;;;12.75;8.85;;;1.80;99.90;;;;;;5066024;28;20090;-66
2023/11/22 04:48:15;;;;;;;9.80;7.55;;;1.80;99.90;;;;;;5063586;28;20032;-66
2023/11/22 04:50:42;;;;;;;9.52;7.78;;;1.80;99.90;;;;;;5096900;27;20041;-66
2023/11/22 04:53:09;;;;;;;10.32;8.73;;;1.80;99.90;;;;;;5065027;28;20120;-66
2023/11/22 04:55:34;;;;;;;12.07;8.27;;;1.90;99.90;;;;;;5064199;28;20068;-66
2023/11/22 04:58:00;;;;;;;9.35;7.35;;;1.80;99.90;;;;;;5065139;28;20463;-66
2023/11/22 05:00:25;;;;;;;11.40;7.63;;;1.80;99.90;;;;;;5061864;28;20041;-66
2023/11/22 05:02:51;;;;;;;9.23;7.57;;;1.80;99.90;;;;;;5066210;28;20379;-66
2023/11/22 05:05:17;;;;;;;13.07;7.20;;;1.80;99.90;;;;;;5067690;28;20111;-66
2023/11/22 05:07:44;;;;;;;11.43;7.82;;;1.70;99.90;;;;;;5065399;28;20046;-65
2023/11/22 05:10:10;;;;;;;12.07;8.30;;;1.70;99.90;;;;;;5065219;28;20036;-65
2023/11/22 05:12:35;;;;;;;12.45;7.55;;;1.70;99.90;;;;;;5067897;28;20051;-65
2023/11/22 05:15:04;;;;;;;9.75;7.03;;;1.70;99.90;;;;;;5062420;28;20040;-65
2023/11/22 05:17:30;;;;;;;7.18;5.43;;;1.70;99.90;;;;;;5063114;28;20124;-65
2023/11/22 05:19:56;;;;;;;8.68;7.18;;;1.60;99.90;;;;;;5062420;28;20119;-65
2023/11/22 05:22:22;;;;;;;9.95;7.57;;;1.60;99.90;;;;;;5063674;28;20060;-65
2023/11/22 05:24:48;;;;;;;8.95;6.15;;;1.60;99.90;;;;;;5095451;28;20058;-66
2023/11/22 05:27:14;;;;;;;8.02;6.57;;;1.60;99.90;;;;;;5065630;28;20041;-66
2023/11/22 05:29:40;;;;;;;10.75;7.40;;;1.60;99.90;;;;;;5062057;28;20411;-66
2023/11/22 05:32:06;;;;;;;9.65;6.65;;;1.60;99.90;;;;;;5057498;28;20573;-66
2023/11/22 05:34:32;;;;;;;8.85;6.10;;;1.60;99.90;;;;;;5082848;28;20032;-66
2023/11/22 05:36:58;;;;;;;11.55;7.03;;;1.60;99.90;;;;;;5069562;28;20044;-66
2023/11/22 05:39:24;;;;;;;12.65;7.78;;;1.60;99.90;;;;;;5069402;28;20397;-66
2023/11/22 05:41:53;;;;;;;13.05;7.13;;;1.60;99.90;;;;;;5068201;28;20040;-65
2023/11/22 05:44:19;;;;;;;11.25;7.05;;;1.60;99.90;;;;;;5066599;28;20148;-66
2023/11/22 05:46:45;;;;;;;11.38;7.93;;;1.60;99.90;;;;;;5070113;28;20225;-66
2023/11/22 05:49:10;;;;;;;8.82;6.82;;;1.60;99.90;;;;;;5101439;28;20032;-66
2023/11/22 05:51:37;;;;;;;11.07;8.02;;;1.60;99.90;;;;;;5068295;28;20040;-66
2023/11/22 05:54:03;;;;;;;10.32;7.93;;;1.50;99.90;;;;;;5069089;28;20040;-66
2023/11/22 05:56:28;;;;;;;13.13;7.95;;;1.60;99.90;;;;;;5066275;28;20040;-66
2023/11/22 05:58:54;;;;;;;11.93;7.25;;;1.60;99.90;;;;;;5065676;28;20041;-66
2023/11/22 06:01:20;;;;;;;12.35;8.10;;;1.60;99.90;;;;;;5068652;28;20549;-66
2023/11/22 06:03:46;;;;;;;10.63;8.23;;;1.60;99.90;;;;;;5066185;28;20036;-66
2023/11/22 06:06:13;;;;;;;12.18;8.10;;;1.70;99.90;;;;;;5069867;28;20075;-65
2023/11/22 06:08:39;;;;;;;12.35;8.30;;;1.70;99.90;;;;;;5097946;27;20048;-65
2023/11/22 06:11:04;;;;;;;15.75;8.82;;;1.70;99.90;;;;;;5067260;28;20597;-65
2023/11/22 06:13:31;;;;;;;13.85;9.75;;;1.60;99.90;;;;;;5072629;28;20039;-65
2023/11/22 06:15:57;;;;;;;15.98;10.50;;;1.70;99.90;;;;;;5067548;28;20064;-66
2023/11/22 06:18:29;;;;;;;13.95;9.55;;;1.70;99.90;;;;;;5069247;28;20526;-65
2023/11/22 06:20:55;;;;;;;15.65;10.25;;;1.80;99.90;;;;;;5068555;28;20612;-65
2023/11/22 06:23:21;;;;;;;19.63;11.07;;;1.80;99.90;;;;;;5099079;28;20040;-65
2023/11/22 06:25:46;;;;;;;17.48;9.80;;;1.80;99.90;;;;;;5063992;28;20119;-65
2023/11/22 06:28:12;;;;;;;16.63;9.77;;;1.80;99.90;;;;;;5069322;28;20395;-65
2023/11/22 06:30:38;;;;;;;15.32;10.20;;;1.90;99.90;;;;;;5066559;28;20147;-65
2023/11/22 06:33:03;;;;;;;14.93;10.38;;;1.90;99.90;;;;;;5065803;28;20032;-66
2023/11/22 06:35:29;;;;;;;23.20;9.55;;;1.90;99.90;;;;;;5066261;28;20052;-65
2023/11/22 06:37:55;;;;;;;13.40;8.70;;;1.90;99.90;;;;;;5069180;28;20077;-65
2023/11/22 06:40:20;;;;;;;14.45;8.65;;;1.80;99.90;;;;;;5066319;28;20131;-65
2023/11/22 06:42:46;;;;;;;10.60;8.15;;;1.90;99.90;;;;;;5068693;28;20139;-65
2023/11/22 06:45:15;;;;;;;16.73;9.90;;;1.90;99.90;;;;;;5066964;28;20410;-65
2023/11/22 06:47:41;;;;;;;17.13;10.50;;;1.90;99.90;;;;;;5063000;28;20530;-66
2023/11/22 06:50:09;;;;;;;15.95;10.02;;;1.90;99.90;;;;;;5095785;28;20490;-65
2023/11/22 06:52:38;;;;;;;16.52;11.63;;;2.00;99.90;;;;;;5063002;28;20040;-65
2023/11/22 06:55:07;;;;;;;15.40;10.32;;;2.00;99.90;;;;;;5062727;28;20036;-65
2023/11/22 06:57:36;;;;;;;14.23;9.57;;;2.00;99.90;;;;;;5062230;28;20080;-65
2023/11/22 07:00:05;;;;;;;13.32;9.57;;;2.00;99.90;;;;;;5062503;28;20044;-66
2023/11/22 07:02:32;;;;;;;14.77;9.82;;;2.00;99.90;;;;;;5060429;28;20133;-66
2023/11/22 07:05:01;;;;;;;14.52;9.80;;;1.90;99.90;;;;;;5065097;28;20128;-66
2023/11/22 07:07:27;;;;;;;15.07;10.27;;;2.00;99.90;;;;;;5102125;27;20040;-66
2023/11/22 07:09:52;;;;;;;14.15;10.10;;;2.00;99.90;;;;;;5066724;28;20639;-66
2023/11/22 07:12:19;;;;;;;14.85;9.40;;;2.10;99.90;;;;;;5067756;28;20032;-66
2023/11/22 07:14:45;;;;;;;11.70;8.60;;;2.00;99.90;;;;;;5080594;28;20041;-66
2023/11/22 07:17:10;;;;;;;11.45;8.82;;;2.00;99.90;;;;;;5068537;28;20047;-66
2023/11/22 07:19:38;;;;;;;14.95;10.93;;;2.00;99.90;;;;;;5065274;28;20045;-66
2023/11/22 07:22:15;;;;;;;14.68;10.68;;;2.00;99.90;;;;;;5101476;27;20048;-66
2023/11/22 07:24:43;;;;;;;15.13;10.50;;;2.10;99.90;;;;;;5103576;27;20040;-66
2023/11/22 07:27:13;;;;;;;20.05;10.65;;;2.10;99.90;;;;;;5067860;28;20047;-66
2023/11/22 07:29:43;;;;;;;21.10;11.82;;;2.00;99.90;;;;;;5066448;28;20041;-66
2023/11/22 07:32:09;;;;;;;17.67;11.75;;;2.10;99.90;;;;;;5069075;28;20060;-66
2023/11/22 07:34:36;;;;;;;19.23;12.50;;;2.10;99.90;;;;;;5065827;28;20079;-66
2023/11/22 07:37:02;;;;;;;20.42;12.93;;;2.20;99.90;;;;;;5062696;28;20040;-66
2023/11/22 07:39:28;;;;;;;16.45;12.02;;;2.20;99.90;;;;;;5066964;28;20082;-66
2023/11/22 07:41:54;;;;;;;17.55;12.18;;;2.10;99.90;;;;;;5068143;28;20060;-66
2023/11/22 07:44:21;;;;;;;21.88;12.80;;;2.20;99.90;;;;;;5069567;28;20040;-66
2023/11/22 07:46:47;;;;;;;15.98;11.85;;;2.20;99.90;;;;;;5050225;28;20040;-66
2023/11/22 07:49:16;;;;;;;16.63;12.30;;;2.30;99.90;;;;;;5066978;28;20036;-66
2023/11/22 07:51:45;;;;;;;18.58;13.25;;;2.30;99.90;;;;;;5067107;28;20028;-66
2023/11/22 07:54:12;;;;;;;17.95;12.90;;;2.30;99.90;;;;;;5067828;28;20040;-66
2023/11/22 07:56:38;;;;;;;21.92;13.38;;;2.40;99.90;;;;;;5092085;28;20083;-66
2023/11/22 07:59:04;;;;;;;19.45;12.80;;;2.40;99.90;;;;;;5064835;28;20064;-66
2023/11/22 08:01:31;;;;;;;23.33;13.98;;;2.50;99.90;;;;;;5066919;28;20695;-66
2023/11/22 08:03:57;;;;;;;20.10;13.90;;;2.50;99.90;;;;;;5068193;28;20442;-66
2023/11/22 08:06:22;;;;;;;21.05;14.45;;;2.60;99.90;;;;;;5099859;28;20094;-66
2023/11/22 08:08:48;;;;;;;20.05;14.07;;;2.60;99.90;;;;;;5069574;28;20034;-66
2023/11/22 08:11:20;;;;;;;19.48;14.43;;;2.60;99.90;;;;;;5104664;27;20048;-66
2023/11/22 08:13:47;;;;;;;20.77;14.68;;;2.70;99.90;;;;;;5071332;28;20037;-66
2023/11/22 08:16:13;;;;;;;18.88;14.10;;;2.70;99.90;;;;;;5071217;28;20040;-66
2023/11/22 08:18:42;;;;;;;20.50;14.50;;;2.80;99.90;;;;;;5070329;28;20044;-66
2023/11/22 08:21:08;;;;;;;18.90;13.48;;;2.80;99.90;;;;;;5070325;28;20048;-66
2023/11/22 08:23:34;;;;;;;19.70;12.95;;;2.90;99.90;;;;;;5070542;28;20048;-66
2023/11/22 08:26:01;;;;;;;19.33;13.95;;;2.90;99.90;;;;;;5070371;28;20098;-66
2023/11/22 08:28:26;;;;;;;22.73;14.55;;;3.00;99.90;;;;;;5069232;28;20475;-66
2023/11/22 08:30:53;;;;;;;20.38;15.00;;;3.00;99.90;;;;;;5068105;28;20051;-66
2023/11/22 08:33:19;;;;;;;16.63;12.93;;;3.00;99.90;;;;;;5070211;28;20455;-66
2023/11/22 08:35:50;;;;;;;20.75;14.30;;;3.10;99.90;;;;;;5070138;28;20486;-66
2023/11/22 08:38:16;;;;;;;18.75;14.07;;;3.10;99.90;;;;;;5070453;28;20047;-66
2023/11/22 08:40:42;;;;;;;19.00;13.75;;;3.10;99.90;;;;;;5068115;28;20041;-66
2023/11/22 08:43:08;;;;;;;18.85;13.63;;;3.20;99.90;;;;;;5068307;28;20055;-66
2023/11/22 08:45:34;;;;;;;16.92;13.52;;;3.20;99.90;;;;;;5067837;28;20131;-66
2023/11/22 08:48:00;;;;;;;21.52;13.93;;;3.20;99.90;;;;;;5067191;28;20052;-66
2023/11/22 08:50:26;;;;;;;19.98;13.65;;;3.20;99.90;;;;;;5071129;28;20028;-66
2023/11/22 08:52:52;;;;;;;18.98;13.48;;;3.30;99.90;;;;;;5070530;28;20035;-66
2023/11/22 08:55:22;;;;;;;21.92;13.05;;;3.30;99.90;;;;;;5069273;28;20044;-66
2023/11/22 08:57:50;;;;;;;17.10;12.75;;;3.30;99.90;;;;;;5067086;28;20052;-66
2023/11/22 09:00:22;;;;;;;22.50;14.05;;;3.40;99.90;;;;;;5066934;28;20407;-66
2023/11/22 09:02:49;;;;;;;17.02;13.48;;;3.40;99.90;;;;;;5066917;28;20033;-66
2023/11/22 09:05:16;;;;;;;17.45;12.73;;;3.40;99.90;;;;;;5062986;28;20040;-66
2023/11/22 09:07:44;;;;;;;23.35;13.43;;;3.40;99.90;;;;;;5066128;28;20064;-66
2023/11/22 09:10:12;;;;;;;18.73;14.75;;;3.50;99.90;;;;;;5067240;28;20047;-66
2023/11/22 09:12:40;;;;;;;18.23;13.73;;;3.50;99.90;;;;;;5066246;28;20064;-66
2023/11/22 09:15:11;;;;;;;18.27;13.52;;;3.60;99.90;;;;;;5066034;28;20491;-66
2023/11/22 09:17:44;;;;;;;20.00;14.65;;;3.60;99.90;;;;;;5067968;28;20499;-66
2023/11/22 09:20:14;;;;;;;21.38;14.45;;;3.70;99.90;;;;;;5065002;28;20387;-66
2023/11/22 09:22:48;;;;;;;20.95;14.57;;;3.60;99.90;;;;;;5081447;28;20052;-66
2023/11/22 09:25:19;;;;;;;19.48;14.13;;;3.70;99.90;;;;;;5096923;28;20033;-66
2023/11/22 09:27:48;;;;;;;19.05;13.82;;;3.70;99.90;;;;;;5066357;28;20120;-66
2023/11/22 09:30:19;;;;;;;19.95;13.50;;;3.70;99.90;;;;;;5066188;28;20127;-66
2023/11/22 09:32:46;;;;;;;20.95;14.00;;;3.70;99.90;;;;;;5065273;28;20116;-66
2023/11/22 09:35:13;;;;;;;18.63;13.40;;;3.70;99.90;;;;;;5066453;28;20048;-66
2023/11/22 09:37:42;;;;;;;19.42;13.68;;;3.70;99.90;;;;;;5065655;28;20611;-66
2023/11/22 09:40:09;;;;;;;15.52;13.07;;;3.80;99.90;;;;;;5095430;28;20115;-66
2023/11/22 09:42:35;;;;;;;17.17;13.52;;;3.80;99.90;;;;;;5066250;28;20052;-66
2023/11/22 09:45:01;;;;;;;18.23;14.25;;;3.90;99.90;;;;;;5066564;28;20867;-66
2023/11/22 09:47:34;;;;;;;18.40;14.40;;;3.80;99.90;;;;;;5065534;28;20033;-66
2023/11/22 09:50:05;;;;;;;19.38;13.25;;;3.90;99.90;;;;;;5067574;28;20122;-66
2023/11/22 09:52:35;;;;;;;16.70;12.93;;;3.90;99.90;;;;;;5102383;28;20548;-66
2023/11/22 09:55:03;;;;;;;20.00;15.43;;;4.00;99.90;;;;;;5067931;28;20045;-66
2023/11/22 09:57:30;;;;;;;21.83;15.05;;;4.00;99.90;;;;;;5069340;28;20040;-66
2023/11/22 09:59:58;;;;;;;19.98;14.82;;;4.10;99.90;;;;;;5069681;28;20059;-67
2023/11/22 10:02:26;;;;;;;19.20;14.38;;;4.10;99.90;;;;;;5065140;28;20040;-67
2023/11/22 10:04:53;;;;;;;19.27;12.70;;;4.10;99.90;;;;;;5066659;28;20055;-66
2023/11/22 10:07:19;;;;;;;21.05;12.98;;;4.10;99.90;;;;;;5069582;28;20045;-66
2023/11/22 10:09:45;;;;;;;16.40;12.75;;;4.20;99.90;;;;;;5065405;28;20399;-66
2023/11/22 10:12:12;;;;;;;15.77;12.52;;;4.20;99.90;;;;;;5066796;28;20036;-66
2023/11/22 10:14:38;;;;;;;15.40;12.38;;;4.20;99.90;;;;;;5063769;28;20040;-66
2023/11/22 10:17:05;;;;;;;16.48;12.40;;;4.20;99.90;;;;;;5067534;28;20044;-66
2023/11/22 10:19:31;;;;;;;13.95;11.00;;;4.30;99.90;;;;;;5066733;28;20587;-66
2023/11/22 10:22:05;;;;;;;13.38;11.05;;;4.40;99.90;;;;;;5069606;28;20044;-66
2023/11/22 10:24:35;;;;;;;15.60;11.68;;;4.40;99.90;;;;;;5070034;28;20044;-66
2023/11/22 10:27:01;;;;;;;17.50;11.93;;;4.50;99.90;;;;;;5071714;28;20036;-66
2023/11/22 10:29:27;;;;;;;14.82;11.23;;;4.50;99.90;;;;;;5052969;28;20103;-66
2023/11/22 10:31:53;;;;;;;12.05;10.10;;;4.60;99.90;;;;;;5071949;28;20115;-66
2023/11/22 10:34:20;;;;;;;12.93;10.13;;;4.60;99.90;;;;;;5068592;28;20491;-66
2023/11/22 10:36:47;;;;;;;13.48;10.18;;;4.60;99.90;;;;;;5069140;28;20119;-66
2023/11/22 10:39:16;;;;;;;12.48;9.77;;;4.70;99.90;;;;;;5068271;28;20126;-66
2023/11/22 10:41:43;;;;;;;12.18;9.45;;;4.70;99.90;;;;;;5054447;28;20086;-66
2023/11/22 10:44:09;;;;;;;13.23;10.20;;;4.80;99.90;;;;;;5071268;28;20527;-66
2023/11/22 10:46:36;;;;;;;11.02;9.85;;;4.80;99.90;;;;;;5070470;28;20068;-66
2023/11/22 10:49:01;;;;;;;11.02;9.60;;;4.90;99.90;;;;;;5069802;28;20395;-66
2023/11/22 10:51:32;;;;;;;12.07;9.43;;;5.00;99.90;;;;;;5066999;28;20033;-66
2023/11/22 10:54:00;;;;;;;11.77;9.23;;;5.00;99.90;;;;;;5070791;28;20032;-66
2023/11/22 10:56:28;;;;;;;11.25;8.02;;;5.10;99.90;;;;;;5067964;28;20064;-66
2023/11/22 10:58:57;;;;;;;13.98;9.15;;;5.10;99.90;;;;;;5068049;28;20491;-66
2023/11/22 11:01:29;;;;;;;11.23;9.00;;;5.20;99.90;;;;;;5065244;28;20045;-66
2023/11/22 11:04:11;;;;;;;9.43;8.35;;;5.20;99.90;;;;;;5067962;28;20132;-66
2023/11/22 11:06:37;;;;;;;8.98;7.78;;;5.20;99.90;;;;;;5068382;28;20048;-66
2023/11/22 11:09:08;;;;;;;8.65;7.32;;;5.20;99.90;;;;;;5097689;28;20031;-66
2023/11/22 11:11:35;;;;;;;11.07;7.70;;;5.20;99.90;;;;;;5070475;28;20131;-66
2023/11/22 11:14:02;;;;;;;9.25;7.45;;;5.20;99.90;;;;;;5069210;28;20098;-66
2023/11/22 11:16:36;;;;;;;8.27;7.03;;;5.10;99.90;;;;;;5069812;28;20044;-66
2023/11/22 11:19:02;;;;;;;10.02;7.30;;;5.10;99.90;;;;;;5071201;28;20050;-66
2023/11/22 11:21:28;;;;;;;8.38;6.75;;;5.20;99.90;;;;;;5071383;28;20045;-66
2023/11/22 11:24:02;;;;;;;10.75;7.07;;;5.30;99.90;;;;;;5071088;28;20080;-67
2023/11/22 11:26:28;;;;;;;9.77;6.47;;;5.50;99.90;;;;;;5067318;28;20036;-67
2023/11/22 11:28:54;;;;;;;7.72;6.78;;;5.60;99.90;;;;;;5065196;28;20535;-66
2023/11/22 11:31:23;;;;;;;8.43;7.13;;;5.70;99.90;;;;;;5069222;28;20422;-66
2023/11/22 11:33:49;;;;;;;10.02;6.93;;;5.70;99.90;;;;;;5072462;28;20115;-66
2023/11/22 11:36:41;;;;;;;7.93;6.55;;;5.70;99.90;;;;;;5070605;28;20127;-66
2023/11/22 11:39:14;;;;;;;11.52;7.38;;;5.80;99.90;;;;;;5069090;28;20109;-66
2023/11/22 11:41:41;;;;;;;10.05;6.88;;;5.90;99.90;;;;;;5105005;27;20106;-66
2023/11/22 11:44:09;;;;;;;11.30;7.22;;;5.80;99.90;;;;;;5102553;28;20484;-66
2023/11/22 11:46:37;;;;;;;8.95;7.32;;;5.90;99.90;;;;;;5071029;28;20033;-66
2023/11/22 11:49:07;;;;;;;7.63;6.35;;;5.90;99.90;;;;;;5068794;28;20032;-66
2023/11/22 11:51:33;;;;;;;7.88;7.07;;;5.90;99.90;;;;;;5070932;28;20048;-66
2023/11/22 11:53:59;;;;;;;8.70;6.68;;;6.00;99.90;;;;;;5069611;28;20050;-66
2023/11/22 11:56:26;;;;;;;7.50;6.68;;;6.00;99.90;;;;;;5070291;28;20135;-66
2023/11/22 11:58:53;;;;;;;6.57;5.93;;;6.00;99.90;;;;;;5069457;28;20040;-67
2023/11/22 12:01:22;;;;;;;6.38;5.78;;;6.00;99.90;;;;;;5069902;28;20585;-67
2023/11/22 12:03:49;;;;;;;6.65;5.68;;;6.00;99.90;;;;;;5069744;28;20048;-66
2023/11/22 12:06:19;;;;;;;6.97;5.70;;;6.00;99.90;;;;;;5070296;28;20077;-66
2023/11/22 12:08:47;;;;;;;7.20;5.32;;;6.10;99.90;;;;;;5068847;28;20037;-66
2023/11/22 12:11:13;;;;;;;5.35;4.72;;;6.10;99.90;;;;;;5070988;28;20044;-66
2023/11/22 12:13:43;;;;;;;5.07;4.55;;;6.10;99.90;;;;;;5071000;28;20043;-67
2023/11/22 12:16:10;;;;;;;6.38;5.00;;;6.10;99.90;;;;;;5100332;28;20052;-67
2023/11/22 12:18:47;;;;;;;5.60;4.53;;;6.20;99.90;;;;;;5070090;28;20051;-67
2023/11/22 12:21:14;;;;;;;4.85;4.22;;;6.20;99.90;;;;;;5073690;28;20060;-67
2023/11/22 12:23:41;;;;;;;6.40;5.13;;;6.20;99.90;;;;;;5072382;28;20046;-66
2023/11/22 12:26:12;;;;;;;6.55;4.70;;;6.10;99.90;;;;;;5070611;28;20040;-66
2023/11/22 12:28:40;;;;;;;5.45;4.38;;;6.10;99.90;;;;;;5061569;28;20036;-66
2023/11/22 12:31:13;;;;;;;8.35;4.60;;;6.10;99.90;;;;;;5065893;28;20047;-66
2023/11/22 12:33:41;;;;;;;5.43;4.75;;;6.00;99.90;;;;;;5070907;28;20036;-66
2023/11/22 12:36:09;;;;;;;5.90;4.60;;;6.00;99.90;;;;;;5062735;28;20541;-66
2023/11/22 12:38:35;;;;;;;6.53;4.93;;;6.00;99.90;;;;;;5067122;28;20075;-66
2023/11/22 12:41:06;;;;;;;9.40;5.43;;;5.90;99.90;;;;;;5068124;28;20048;-66
2023/11/22 12:43:31;;;;;;;10.80;5.68;;;5.90;99.90;;;;;;5068891;28;20632;-66
2023/11/22 12:46:06;;;;;;;5.90;5.05;;;5.90;99.90;;;;;;5067785;28;20123;-66